createdAt,value
2019-04-23T12:53:19.651Z,100291.92
2019-04-23T12:55:43.861Z,100314.95
2019-04-23T12:58:14.530Z,100290.66
2019-04-23T13:00:38.963Z,100311.86
2019-04-23T13:03:21.559Z,100303.97
2019-04-23T13:05:36.058Z,100277.30
2019-04-23T13:10:45.782Z,100293.77
2019-04-23T13:13:37.456Z,100320.11
2019-04-23T13:15:47.957Z,100283.89
2019-04-23T13:18:23.684Z,100328.25
2019-04-23T13:20:47.957Z,100281.55
2019-04-23T13:23:22.209Z,100283.89
2019-04-23T13:26:26.313Z,100253.84
2019-04-23T13:28:45.419Z,100266.92
2019-04-23T13:31:18.154Z,100261.11
2019-04-23T13:43:53.136Z,100275.78
2019-04-23T13:46:23.964Z,100247.07
2019-04-23T13:48:47.082Z,100247.97
2019-04-23T13:54:07.493Z,100229.31
2019-04-23T13:58:57.760Z,100221.56
2019-04-23T14:01:28.857Z,100219.81
2019-04-23T14:03:57.111Z,100213.81
2019-04-23T14:06:36.483Z,100232.53
2019-04-23T14:08:59.776Z,100203.83
2019-04-23T14:11:40.483Z,100210.25
2019-04-23T14:14:08.370Z,100198.94
2019-04-23T14:19:04.966Z,100211.28
2019-04-23T14:21:51.669Z,100223.77
2019-04-23T14:24:23.556Z,100199.47
2019-04-23T14:26:38.362Z,100191.08
2019-04-23T14:29:04.255Z,100189.09
2019-04-23T14:31:43.405Z,100175.96
2019-04-23T14:34:11.554Z,100191.79
2019-04-23T14:36:55.529Z,100181.36
2019-04-23T14:39:21.574Z,100167.84
2019-04-23T14:42:08.351Z,100203.10
2019-04-23T14:49:53.955Z,100177.02
2019-04-23T14:52:16.482Z,100178.95
2019-04-23T14:55:17.413Z,100160.75
2019-04-23T14:57:23.224Z,100166.02
2019-04-23T14:59:46.821Z,100172.91
2019-04-23T15:02:23.029Z,100176.52
2019-04-23T15:04:48.162Z,100170.72
2019-04-23T15:07:22.834Z,100144.20
2019-04-23T15:12:30.462Z,100160.28
2019-04-23T15:15:02.577Z,100158.63
2019-04-23T15:17:27.075Z,100139.06
2019-04-23T15:19:58.098Z,100143.51
2019-04-23T15:25:13.702Z,100135.41
2019-04-23T15:28:03.427Z,100157.02
2019-04-23T15:29:51.106Z,100146.63
2019-04-23T15:32:44.540Z,100147.43
2019-04-23T15:35:18.441Z,100160.33
2019-04-23T15:40:09.614Z,100130.37
2019-04-23T15:42:43.122Z,100134.11
2019-04-23T15:45:14.024Z,100139.23
2019-04-23T15:47:40.041Z,100136.20
2019-04-23T15:50:15.726Z,100143.80
2019-04-23T15:52:51.517Z,100142.23
2019-04-23T15:55:11.902Z,100138.06
2019-04-23T15:58:00.883Z,100124.00
2019-04-23T16:00:15.977Z,100143.14
2019-04-23T16:02:20.196Z,100122.24
2019-04-23T16:04:49.360Z,100124.00
2019-04-23T16:07:34.030Z,100118.87
2019-04-23T16:12:54.733Z,100117.00
2019-04-23T16:15:22.025Z,100125.89
2019-04-23T16:18:04.114Z,100133.41
2019-04-23T16:21:18.153Z,100121.70
2019-04-23T16:23:21.048Z,100119.41
2019-04-23T16:25:51.823Z,100096.16
2019-04-23T16:31:00.817Z,100124.09
2019-04-23T16:33:18.642Z,100104.53
2019-04-23T16:36:21.560Z,100109.59
2019-04-23T16:41:09.865Z,100107.94
2019-04-23T16:43:35.385Z,100092.25
2019-04-23T16:48:41.629Z,100098.59
2019-04-23T16:53:31.439Z,100100.91
2019-04-23T16:56:13.104Z,100105.52
2019-04-23T17:01:08.631Z,100112.27
2019-04-23T17:03:37.930Z,100121.20
2019-04-23T17:06:12.144Z,100107.31
2019-04-23T17:08:51.961Z,100108.86
2019-04-23T17:11:15.187Z,100107.17
2019-04-23T17:13:37.646Z,100109.22
2019-04-23T17:16:16.769Z,100105.13
2019-04-23T17:18:47.165Z,100104.67
2019-04-23T17:21:12.159Z,100109.52
2019-04-23T17:26:20.818Z,100106.23
2019-04-23T17:28:47.550Z,100110.84
2019-04-23T17:31:32.787Z,100113.00
2019-04-23T17:39:08.527Z,100119.03
2019-04-23T17:42:05.717Z,100121.84
2019-04-23T17:47:08.695Z,100122.80
2019-04-23T17:49:35.057Z,100121.13
2019-04-23T17:52:09.109Z,100121.71
2019-04-23T17:57:15.592Z,100128.53
2019-04-23T18:00:12.029Z,100129.37
2019-04-23T18:05:02.385Z,100129.32
2019-04-23T18:07:38.364Z,100126.09
2019-04-23T18:10:11.644Z,100134.98
2019-04-23T18:12:41.785Z,100127.74
2019-04-23T18:15:00.375Z,100137.84
2019-04-23T18:20:06.698Z,100140.05
2019-04-23T18:22:37.169Z,100136.61
2019-04-23T18:27:48.274Z,100132.67
2019-04-23T18:30:26.160Z,100126.20
2019-04-23T18:35:35.746Z,100135.97
2019-04-23T18:38:18.683Z,100141.79
2019-04-23T18:41:01.328Z,100137.19
2019-04-23T18:43:29.729Z,100140.91
2019-04-23T18:45:57.351Z,100137.48
2019-04-23T18:56:11.297Z,100142.37
2019-04-23T18:58:48.572Z,100144.03
2019-04-23T19:06:41.308Z,100134.11
2019-04-23T19:09:32.513Z,100142.28
2019-04-23T19:11:58.129Z,100147.48
2019-04-23T19:14:35.230Z,100141.52
2019-04-23T19:19:28.594Z,100143.64
2019-04-23T19:22:17.414Z,100142.25
2019-04-23T19:24:31.548Z,100147.63
2019-04-23T19:27:10.587Z,100139.73
2019-04-23T19:32:00.565Z,100141.50
2019-04-23T19:34:40.785Z,100137.94
2019-04-23T19:42:18.071Z,100146.49
2019-04-23T19:47:17.588Z,100146.93
2019-04-23T20:02:37.183Z,100139.67
2019-04-23T20:04:46.110Z,100136.78
2019-04-23T20:07:22.674Z,100130.24
2019-04-23T20:09:52.037Z,100138.80
2019-04-23T20:12:25.059Z,100141.55
2019-04-23T20:14:53.456Z,100137.61
2019-04-23T20:22:40.145Z,100131.11
2019-04-23T20:25:18.570Z,100130.77
2019-04-23T20:27:28.770Z,100135.39
2019-04-23T20:30:21.245Z,100133.61
2019-04-23T20:42:49.754Z,100134.08
2019-04-23T20:45:39.607Z,100135.70
2019-04-23T20:47:51.437Z,100136.03
2019-04-23T20:50:21.855Z,100135.11
2019-04-23T20:52:46.661Z,100131.00
2019-04-23T20:55:29.235Z,100136.39
2019-04-23T20:57:49.888Z,100129.19
2019-04-23T21:00:25.702Z,100135.66
2019-04-23T21:13:18.753Z,100141.33
2019-04-23T21:15:40.662Z,100137.52
2019-04-23T21:20:37.047Z,100136.02
2019-04-23T21:28:18.240Z,100129.89
2019-04-23T21:33:34.013Z,100129.50
2019-04-23T21:41:29.223Z,100121.09
2019-04-23T21:44:08.590Z,100120.53
2019-04-23T21:56:41.583Z,100106.02
2019-04-23T22:06:43.274Z,100110.06
2019-04-23T22:09:27.966Z,100103.31
2019-04-23T22:14:17.055Z,100105.92
2019-04-23T22:16:53.924Z,100098.88
2019-04-23T22:19:16.740Z,100101.89
2019-04-23T22:21:50.919Z,100112.06
2019-04-23T22:24:11.962Z,100104.87
2019-04-23T22:26:45.529Z,100092.58
2019-04-23T22:29:25.749Z,100100.12
2019-04-23T22:31:51.958Z,100102.27
2019-04-23T22:34:22.037Z,100100.36
2019-04-23T22:39:25.344Z,100094.08
2019-04-23T22:41:59.017Z,100090.53
2019-04-23T22:44:37.315Z,100095.92
2019-04-23T22:47:02.497Z,100093.33
2019-04-23T22:52:24.912Z,100085.52
2019-04-23T22:54:57.128Z,100081.75
2019-04-23T22:57:09.199Z,100086.06
2019-04-23T23:02:44.641Z,100085.98
2019-04-23T23:05:22.483Z,100083.94
2019-04-23T23:07:47.074Z,100084.66
2019-04-23T23:15:22.973Z,100080.19
2019-04-23T23:17:50.616Z,100080.99
2019-04-23T23:22:58.866Z,100073.33
2019-04-23T23:25:23.834Z,100075.31
2019-04-23T23:27:50.111Z,100077.06
2019-04-23T23:32:53.215Z,100070.81
2019-04-23T23:35:24.321Z,100069.87
2019-04-23T23:37:56.550Z,100062.58
2019-04-23T23:40:21.602Z,100059.16
2019-04-23T23:43:06.036Z,100063.67
2019-04-23T23:47:58.870Z,100058.23
2019-04-23T23:50:25.490Z,100059.21
2019-04-23T23:53:18.454Z,100056.68
2019-04-23T23:58:11.065Z,100047.99
